createdAt,value
2019-01-30T00:01:32.472Z,83.31
2019-01-30T00:03:59.628Z,83.39
2019-01-30T00:06:27.039Z,83.29
2019-01-30T00:08:55.307Z,83.30
2019-01-30T00:11:22.408Z,83.20
2019-01-30T00:13:52.729Z,82.92
2019-01-30T00:16:20.028Z,83.04
2019-01-30T00:18:50.104Z,83.14
2019-01-30T00:21:17.365Z,83.25
2019-01-30T00:23:46.631Z,83.39
2019-01-30T00:26:13.715Z,82.88
2019-01-30T00:28:42.200Z,82.99
2019-01-30T00:31:09.451Z,83.07
2019-01-30T00:33:37.752Z,83.23
2019-01-30T00:36:06.583Z,83.27
2019-01-30T00:38:36.804Z,83.26
2019-01-30T00:41:09.290Z,83.33
2019-01-30T00:43:36.565Z,83.35
2019-01-30T00:46:05.596Z,83.26
2019-01-30T00:48:32.802Z,82.99
2019-01-30T00:51:01.105Z,82.97
2019-01-30T00:53:30.975Z,82.84
2019-01-30T00:56:00.186Z,82.93
2019-01-30T00:58:29.262Z,82.95
2019-01-30T01:00:56.358Z,82.71
2019-01-30T01:03:23.457Z,82.78
2019-01-30T01:05:51.993Z,82.67
2019-01-30T01:08:19.238Z,82.66
2019-01-30T01:10:51.246Z,82.81
2019-01-30T01:13:18.447Z,82.92
2019-01-30T01:15:59.343Z,82.77
2019-01-30T01:18:45.578Z,82.52
2019-01-30T01:21:18.004Z,82.57
2019-01-30T01:23:46.146Z,82.81
2019-01-30T01:26:14.447Z,82.55
2019-01-30T01:28:45.415Z,82.52
2019-01-30T01:31:12.823Z,82.53
2019-01-30T01:33:40.103Z,82.73
2019-01-30T01:36:09.381Z,82.62
2019-01-30T01:38:36.479Z,82.44
2019-01-30T01:41:05.485Z,82.54
2019-01-30T01:43:32.713Z,82.27
2019-01-30T01:45:59.970Z,82.44
2019-01-30T01:48:27.142Z,82.56
2019-01-30T01:50:55.555Z,82.52
2019-01-30T01:53:22.856Z,82.66
2019-01-30T01:55:52.759Z,82.43
2019-01-30T01:58:20.955Z,82.23
2019-01-30T02:00:48.062Z,82.28
2019-01-30T02:03:15.422Z,81.99
2019-01-30T02:05:42.821Z,81.99
2019-01-30T02:08:10.127Z,82.34
2019-01-30T02:10:37.614Z,82.50
2019-01-30T02:13:04.967Z,82.39
2019-01-30T02:15:32.355Z,82.15
2019-01-30T02:17:59.686Z,82.23
2019-01-30T02:20:31.423Z,82.35
2019-01-30T02:22:59.886Z,82.28
2019-01-30T02:25:27.127Z,82.12
2019-01-30T02:27:55.630Z,82.24
2019-01-30T02:30:24.751Z,82.31
2019-01-30T02:32:52.113Z,81.85
2019-01-30T02:35:21.163Z,81.81
2019-01-30T02:37:49.470Z,82.05
2019-01-30T02:40:17.330Z,82.08
2019-01-30T02:42:44.796Z,82.24
2019-01-30T02:45:15.447Z,82.34
2019-01-30T02:47:42.661Z,82.02
2019-01-30T02:50:11.771Z,81.60
2019-01-30T02:52:39.065Z,81.71
2019-01-30T02:55:08.632Z,81.72
2019-01-30T02:57:36.009Z,81.84
2019-01-30T03:00:05.500Z,81.83
2019-01-30T03:02:33.739Z,81.79
2019-01-30T03:05:00.991Z,81.90
2019-01-30T03:07:28.388Z,81.58
2019-01-30T03:09:56.613Z,81.42
2019-01-30T03:12:24.805Z,81.48
2019-01-30T03:14:52.109Z,81.51
2019-01-30T03:17:22.620Z,81.39
2019-01-30T03:19:49.786Z,81.44
2019-01-30T03:22:19.885Z,81.68
2019-01-30T03:24:47.158Z,81.95
2019-01-30T03:27:14.674Z,82.00
2019-01-30T03:29:43.073Z,81.94
2019-01-30T03:32:11.859Z,82.00
2019-01-30T03:34:40.348Z,81.89
2019-01-30T03:37:07.704Z,81.87
2019-01-30T03:39:36.674Z,81.85
2019-01-30T03:42:04.189Z,82.04
2019-01-30T03:44:31.636Z,82.03
2019-01-30T03:47:01.801Z,82.05
2019-01-30T03:49:29.002Z,82.18
2019-01-30T03:51:56.127Z,82.08
2019-01-30T03:54:23.626Z,82.05
2019-01-30T03:56:54.686Z,82.02
2019-01-30T03:59:24.444Z,82.08
2019-01-30T04:01:56.283Z,82.10
2019-01-30T04:04:26.337Z,82.09
2019-01-30T04:06:53.499Z,82.14
2019-01-30T04:09:20.703Z,82.15
2019-01-30T04:11:48.101Z,82.15
2019-01-30T04:14:15.248Z,82.12
2019-01-30T04:16:43.379Z,81.94
2019-01-30T04:19:10.589Z,81.98
2019-01-30T04:21:37.792Z,82.13
2019-01-30T04:24:05.293Z,82.13
2019-01-30T04:26:34.397Z,82.18
2019-01-30T04:29:03.409Z,81.96
2019-01-30T04:31:38.297Z,82.06
2019-01-30T04:34:03.548Z,81.88
2019-01-30T04:36:31.906Z,80.87
2019-01-30T04:38:59.147Z,80.69
2019-01-30T04:41:28.081Z,80.51
2019-01-30T04:43:55.306Z,80.71
2019-01-30T04:46:22.658Z,81.04
2019-01-30T04:48:49.914Z,81.32
2019-01-30T04:51:17.106Z,81.22
2019-01-30T04:53:44.232Z,81.23
2019-01-30T04:56:12.981Z,81.18
2019-01-30T04:58:40.274Z,81.19
2019-01-30T05:01:07.486Z,81.20
2019-01-30T05:03:34.841Z,81.09
2019-01-30T05:06:02.193Z,81.11
2019-01-30T05:08:29.484Z,81.12
2019-01-30T05:10:58.528Z,81.06
2019-01-30T05:13:26.696Z,81.13
2019-01-30T05:15:54.035Z,81.21
2019-01-30T05:18:21.347Z,81.29
2019-01-30T05:20:48.436Z,81.24
2019-01-30T05:23:16.792Z,81.28
2019-01-30T05:25:44.550Z,81.40
2019-01-30T05:28:11.809Z,81.29
2019-01-30T05:30:39.027Z,80.95
2019-01-30T05:33:07.366Z,80.98
2019-01-30T05:35:34.548Z,81.03
2019-01-30T05:38:01.763Z,81.08
2019-01-30T05:40:29.169Z,81.30
2019-01-30T05:42:56.276Z,81.46
2019-01-30T05:45:24.824Z,81.35
2019-01-30T05:47:55.586Z,80.56
2019-01-30T05:50:22.679Z,80.09
2019-01-30T05:52:49.802Z,79.97
2019-01-30T05:55:17.239Z,80.03
2019-01-30T05:57:44.611Z,80.11
2019-01-30T06:00:36.201Z,79.95
2019-01-30T06:03:03.436Z,79.82
2019-01-30T06:05:30.645Z,79.81
2019-01-30T06:07:57.750Z,79.75
2019-01-30T06:10:24.851Z,79.87
2019-01-30T06:12:51.973Z,80.17
2019-01-30T06:15:19.215Z,80.12
2019-01-30T06:17:46.412Z,80.12
2019-01-30T06:20:16.032Z,80.16
2019-01-30T06:22:43.241Z,80.07
2019-01-30T06:25:10.351Z,79.84
2019-01-30T06:27:40.300Z,79.84
2019-01-30T06:30:09.370Z,80.11
2019-01-30T06:32:36.710Z,80.18
2019-01-30T06:35:05.564Z,80.13
2019-01-30T06:37:32.811Z,80.19
2019-01-30T06:40:01.854Z,79.88
2019-01-30T06:42:29.212Z,79.42
2019-01-30T06:44:56.336Z,79.11
2019-01-30T06:47:23.452Z,79.11
2019-01-30T06:49:50.560Z,79.31
2019-01-30T06:52:17.661Z,79.54
2019-01-30T06:54:44.754Z,79.65
2019-01-30T06:57:12.041Z,79.06
2019-01-30T06:59:40.491Z,79.09
2019-01-30T07:02:07.741Z,79.09
2019-01-30T07:04:36.149Z,79.16
2019-01-30T07:07:04.475Z,79.18
2019-01-30T07:09:31.579Z,79.18
2019-01-30T07:11:58.741Z,79.04
2019-01-30T07:14:27.745Z,79.04
2019-01-30T07:16:55.208Z,78.93
2019-01-30T07:19:22.600Z,79.07
2019-01-30T07:21:49.723Z,79.07
2019-01-30T07:24:18.042Z,78.85
2019-01-30T07:26:45.309Z,79.00
2019-01-30T07:29:12.437Z,79.11
2019-01-30T07:31:39.720Z,79.46
2019-01-30T07:34:06.836Z,79.46
2019-01-30T07:36:34.120Z,79.25
2019-01-30T07:39:04.468Z,79.50
2019-01-30T07:41:31.851Z,79.35
2019-01-30T07:43:59.280Z,79.35
2019-01-30T07:46:26.504Z,79.10
2019-01-30T07:48:54.902Z,79.28
2019-01-30T07:51:23.899Z,79.31
2019-01-30T07:53:51.057Z,79.31
2019-01-30T07:56:18.400Z,79.19
2019-01-30T07:58:45.728Z,79.19
2019-01-30T08:01:12.932Z,79.05
2019-01-30T08:03:40.352Z,79.16
2019-01-30T08:06:07.581Z,79.36
2019-01-30T08:08:36.489Z,79.36
2019-01-30T08:11:07.180Z,78.98
2019-01-30T08:13:33.739Z,79.03
2019-01-30T08:16:00.845Z,79.06
2019-01-30T08:18:29.294Z,79.14
2019-01-30T08:20:56.664Z,79.11
2019-01-30T08:23:23.925Z,79.34
2019-01-30T08:25:52.375Z,79.34
2019-01-30T08:28:19.489Z,79.41
2019-01-30T08:30:49.686Z,79.45
2019-01-30T08:33:17.304Z,79.48
2019-01-30T08:35:45.310Z,79.45
2019-01-30T08:38:12.370Z,79.54
2019-01-30T08:40:39.470Z,79.69
2019-01-30T08:43:06.599Z,79.88
2019-01-30T08:45:35.612Z,80.07
2019-01-30T08:48:03.086Z,80.07
2019-01-30T08:50:30.428Z,80.05
2019-01-30T08:52:57.530Z,80.05
2019-01-30T08:55:26.059Z,79.89
2019-01-30T08:57:53.416Z,79.89
2019-01-30T09:00:22.048Z,79.95
2019-01-30T09:02:49.420Z,80.06
2019-01-30T09:05:17.774Z,80.35
2019-01-30T09:07:45.405Z,80.35
2019-01-30T09:10:16.989Z,80.44
2019-01-30T09:12:44.104Z,80.39
2019-01-30T09:15:13.015Z,80.46
2019-01-30T09:17:40.392Z,80.53
2019-01-30T09:20:10.944Z,80.63
2019-01-30T09:22:39.835Z,80.68
2019-01-30T09:25:10.710Z,80.73
2019-01-30T09:27:38.005Z,80.73
2019-01-30T09:30:09.134Z,80.73
2019-01-30T09:32:36.496Z,80.83
2019-01-30T09:35:05.901Z,81.13
2019-01-30T09:37:33.143Z,80.83
2019-01-30T09:40:01.426Z,80.80
2019-01-30T09:42:28.681Z,80.92
2019-01-30T09:44:57.542Z,80.92
2019-01-30T09:47:24.743Z,80.83
2019-01-30T09:49:52.054Z,80.84
2019-01-30T09:52:26.727Z,80.83
2019-01-30T09:54:49.343Z,80.73
2019-01-30T09:57:16.694Z,80.56
2019-01-30T09:59:44.081Z,80.68
2019-01-30T10:02:11.276Z,80.68
2019-01-30T10:04:38.713Z,80.53
2019-01-30T10:07:07.767Z,80.59
2019-01-30T10:09:37.441Z,80.42
2019-01-30T10:12:04.236Z,80.50
2019-01-30T10:14:31.472Z,80.68
2019-01-30T10:16:58.736Z,80.71
2019-01-30T10:19:25.951Z,80.75
2019-01-30T10:21:54.933Z,80.80
2019-01-30T10:24:23.908Z,80.79
2019-01-30T10:26:52.245Z,80.83
2019-01-30T10:29:19.439Z,80.80
2019-01-30T10:31:46.540Z,80.79
2019-01-30T10:34:13.667Z,80.76
2019-01-30T10:36:40.770Z,80.69
2019-01-30T10:39:09.559Z,80.61
2019-01-30T10:41:39.680Z,80.68
2019-01-30T10:44:09.699Z,80.74
2019-01-30T10:46:43.889Z,80.68
2019-01-30T10:49:11.216Z,80.65
2019-01-30T10:51:46.868Z,80.73
2019-01-30T10:54:16.643Z,80.92
2019-01-30T10:56:45.763Z,80.58
2019-01-30T10:59:15.216Z,80.58
2019-01-30T11:01:45.543Z,80.41
2019-01-30T11:04:18.876Z,80.23
2019-01-30T11:06:48.019Z,80.23
2019-01-30T11:09:16.928Z,80.33
2019-01-30T11:11:44.048Z,80.33
2019-01-30T11:14:14.356Z,80.46
2019-01-30T11:16:44.468Z,80.46
2019-01-30T11:19:12.793Z,80.47
2019-01-30T11:21:39.875Z,80.55
2019-01-30T11:24:09.950Z,80.63
2019-01-30T11:26:39.060Z,80.73
2019-01-30T11:29:06.421Z,80.82
2019-01-30T11:31:35.429Z,80.81
2019-01-30T11:34:07.475Z,80.82
2019-01-30T11:36:33.841Z,80.82
2019-01-30T11:39:02.429Z,80.85
2019-01-30T11:41:31.495Z,80.83
2019-01-30T11:44:01.702Z,80.84
2019-01-30T11:46:29.080Z,80.87
2019-01-30T11:48:57.234Z,80.86
2019-01-30T11:51:24.487Z,80.83
2019-01-30T11:53:54.875Z,80.89
2019-01-30T11:56:21.980Z,80.89
2019-01-30T11:58:49.337Z,81.00
2019-01-30T12:01:16.683Z,81.00
2019-01-30T12:03:45.070Z,81.00
2019-01-30T12:06:13.519Z,81.01
2019-01-30T12:08:41.737Z,81.10
2019-01-30T12:11:08.845Z,81.10
2019-01-30T12:13:36.236Z,81.06
2019-01-30T12:16:03.680Z,81.06
2019-01-30T12:18:31.047Z,81.07
2019-01-30T12:21:00.071Z,81.14
2019-01-30T12:23:27.180Z,81.04
2019-01-30T12:25:54.552Z,81.05
2019-01-30T12:28:23.469Z,81.22
2019-01-30T12:30:51.839Z,81.22
2019-01-30T12:33:20.948Z,81.33
2019-01-30T12:35:50.080Z,81.20
2019-01-30T12:38:17.532Z,81.34
2019-01-30T12:40:44.956Z,81.22
2019-01-30T12:43:12.212Z,81.18
2019-01-30T12:45:39.632Z,81.16
2019-01-30T12:48:10.377Z,81.36
2019-01-30T12:50:37.074Z,81.36
2019-01-30T12:53:04.245Z,81.33
2019-01-30T12:55:31.677Z,81.33
2019-01-30T12:57:58.988Z,81.37
2019-01-30T13:00:28.276Z,81.41
2019-01-30T13:02:56.904Z,81.45
2019-01-30T13:05:25.336Z,81.49
2019-01-30T13:07:53.569Z,81.47
2019-01-30T13:10:20.945Z,81.44
2019-01-30T13:12:48.152Z,81.37
2019-01-30T13:15:16.741Z,81.40
2019-01-30T13:17:46.688Z,81.44
2019-01-30T13:20:14.999Z,81.44
2019-01-30T13:22:44.113Z,81.69
2019-01-30T13:25:11.752Z,81.47
2019-01-30T13:27:39.519Z,81.41
2019-01-30T13:30:11.089Z,81.40
2019-01-30T13:32:40.999Z,81.34
2019-01-30T13:35:08.232Z,81.33
2019-01-30T13:37:35.616Z,81.28
2019-01-30T13:40:05.834Z,81.34
2019-01-30T13:42:34.763Z,81.42
2019-01-30T13:45:01.878Z,81.47
2019-01-30T13:47:32.630Z,81.50
2019-01-30T13:50:02.164Z,81.53
2019-01-30T13:52:29.452Z,81.45
2019-01-30T13:54:56.600Z,81.46
2019-01-30T13:57:23.725Z,81.39
2019-01-30T13:59:51.143Z,81.41
2019-01-30T14:02:21.205Z,81.41
2019-01-30T14:04:59.148Z,81.49
2019-01-30T14:07:19.604Z,81.51
2019-01-30T14:09:48.540Z,81.54
2019-01-30T14:15:02.479Z,81.51
2019-01-30T14:17:32.203Z,81.60
2019-01-30T14:19:59.197Z,81.66
2019-01-30T14:22:26.611Z,81.73
2019-01-30T14:24:53.881Z,81.70
2019-01-30T14:27:21.361Z,81.69
2019-01-30T14:29:58.167Z,81.71
2019-01-30T14:32:19.670Z,81.70
2019-01-30T14:34:48.205Z,81.62
2019-01-30T14:37:17.520Z,81.63
2019-01-30T14:39:45.080Z,81.66
2019-01-30T14:42:12.344Z,81.69
2019-01-30T14:44:39.583Z,81.73
2019-01-30T14:47:10.429Z,81.78
2019-01-30T14:49:37.537Z,81.78
2019-01-30T14:52:04.763Z,81.72
2019-01-30T14:54:32.189Z,81.74
2019-01-30T14:56:59.319Z,81.81
2019-01-30T14:59:28.391Z,81.86
2019-01-30T15:01:55.707Z,81.89
2019-01-30T15:04:24.111Z,81.92
2019-01-30T15:06:53.442Z,81.95
2019-01-30T15:09:20.653Z,81.94
2019-01-30T15:11:49.088Z,81.95
2019-01-30T15:14:19.024Z,81.97
2019-01-30T15:16:48.177Z,82.03
2019-01-30T15:19:15.474Z,82.11
2019-01-30T15:21:42.820Z,82.08
2019-01-30T15:24:10.179Z,82.08
2019-01-30T15:26:37.655Z,82.06
2019-01-30T15:29:04.906Z,82.08
2019-01-30T15:31:35.639Z,82.05
2019-01-30T15:34:04.045Z,82.02
2019-01-30T15:36:31.446Z,82.05
2019-01-30T15:38:59.695Z,82.11
2019-01-30T15:41:28.686Z,82.19
2019-01-30T15:43:55.954Z,82.23
2019-01-30T15:46:23.126Z,82.22
2019-01-30T15:48:52.060Z,82.23
2019-01-30T15:51:21.172Z,82.23
2019-01-30T15:53:48.300Z,82.21
2019-01-30T15:56:15.558Z,82.19
2019-01-30T15:58:43.752Z,82.23
2019-01-30T16:01:32.758Z,82.26
2019-01-30T16:04:00.118Z,82.28
2019-01-30T16:06:29.023Z,82.29
2019-01-30T16:08:56.120Z,82.30
2019-01-30T16:11:23.427Z,82.26
2019-01-30T16:13:50.807Z,82.28
2019-01-30T16:16:18.225Z,82.30
2019-01-30T16:18:45.340Z,82.30
2019-01-30T16:21:12.644Z,82.30
2019-01-30T16:23:40.102Z,82.30
2019-01-30T16:26:07.563Z,82.32
2019-01-30T16:28:36.376Z,82.28
2019-01-30T16:31:05.252Z,82.24
2019-01-30T16:33:33.461Z,82.23
2019-01-30T16:36:01.737Z,82.27
2019-01-30T16:38:29.056Z,82.26
2019-01-30T16:40:56.344Z,82.32
2019-01-30T16:43:24.568Z,82.36
2019-01-30T16:45:51.930Z,82.38
2019-01-30T16:48:20.872Z,82.38
2019-01-30T16:50:48.231Z,82.39
2019-01-30T16:53:15.522Z,82.39
2019-01-30T16:55:43.972Z,82.41
2019-01-30T16:58:11.088Z,82.43
2019-01-30T17:00:38.712Z,82.43
2019-01-30T17:03:06.163Z,82.44
2019-01-30T17:05:33.624Z,82.43
2019-01-30T17:08:00.817Z,82.45
2019-01-30T17:10:29.330Z,82.44
2019-01-30T17:12:56.456Z,82.41
2019-01-30T17:15:25.617Z,82.37
2019-01-30T17:17:53.045Z,82.34
2019-01-30T17:20:22.382Z,82.33
2019-01-30T17:22:50.035Z,82.35
2019-01-30T17:25:18.116Z,82.41
2019-01-30T17:27:45.316Z,82.39
2019-01-30T17:30:21.684Z,82.41
2019-01-30T17:32:51.319Z,82.45
2019-01-30T17:35:18.419Z,82.47
2019-01-30T17:37:45.545Z,82.46
2019-01-30T17:40:15.957Z,82.49
2019-01-30T17:42:43.053Z,82.50
2019-01-30T17:45:16.917Z,82.57
2019-01-30T17:47:45.786Z,82.57
2019-01-30T17:50:17.269Z,82.64
2019-01-30T17:52:47.497Z,82.67
2019-01-30T17:55:17.321Z,82.70
2019-01-30T17:57:44.482Z,82.77
2019-01-30T18:00:24.606Z,82.82
2019-01-30T18:02:51.763Z,82.84
2019-01-30T18:05:21.508Z,82.84
2019-01-30T18:07:48.876Z,82.78
2019-01-30T18:10:18.485Z,82.76
2019-01-30T18:12:45.798Z,82.77
2019-01-30T18:15:15.905Z,82.84
2019-01-30T18:17:43.123Z,82.89
2019-01-30T18:20:12.156Z,82.89
2019-01-30T18:22:39.363Z,82.94
2019-01-30T18:25:07.885Z,82.97
2019-01-30T18:27:35.002Z,82.97
2019-01-30T18:30:02.114Z,83.02
2019-01-30T18:32:29.222Z,83.02
2019-01-30T18:34:56.323Z,83.07
2019-01-30T18:37:23.416Z,83.11
2019-01-30T18:39:53.082Z,83.12
2019-01-30T18:42:22.620Z,83.17
2019-01-30T18:44:49.730Z,83.22
2019-01-30T18:47:16.828Z,83.25
2019-01-30T18:49:43.966Z,83.30
2019-01-30T18:52:11.067Z,83.36
2019-01-30T18:54:38.277Z,83.40
2019-01-30T18:57:05.377Z,83.44
2019-01-30T18:59:32.516Z,83.48
2019-01-30T19:01:59.620Z,83.51
2019-01-30T19:04:26.829Z,83.55
2019-01-30T19:06:53.931Z,83.62
2019-01-30T19:09:21.028Z,83.58
2019-01-30T19:11:48.129Z,83.64
2019-01-30T19:14:15.237Z,83.64
2019-01-30T19:16:42.328Z,83.67
2019-01-30T19:19:09.430Z,83.62
2019-01-30T19:21:36.521Z,83.61
2019-01-30T19:24:03.742Z,83.52
2019-01-30T19:26:30.828Z,83.42
2019-01-30T19:28:57.927Z,83.35
2019-01-30T19:31:25.028Z,83.32
2019-01-30T19:33:52.237Z,83.32
2019-01-30T19:36:19.417Z,83.42
2019-01-30T19:38:46.533Z,83.49
2019-01-30T19:41:13.630Z,83.53
2019-01-30T19:43:40.767Z,83.55
2019-01-30T19:46:07.878Z,83.48
2019-01-30T19:48:34.984Z,83.38
2019-01-30T19:51:02.138Z,83.41
2019-01-30T19:53:29.239Z,83.41
2019-01-30T19:55:58.979Z,83.45
2019-01-30T19:58:28.135Z,83.45
2019-01-30T20:00:55.253Z,83.43
2019-01-30T20:03:27.783Z,83.38
2019-01-30T20:05:59.031Z,83.34
2019-01-30T20:08:26.435Z,83.35
2019-01-30T20:10:53.710Z,83.33
2019-01-30T20:13:21.945Z,83.29
2019-01-30T20:15:51.090Z,83.22
2019-01-30T20:18:22.311Z,83.27
2019-01-30T20:20:53.345Z,83.27
2019-01-30T20:23:22.567Z,83.24
2019-01-30T20:25:49.704Z,83.22
2019-01-30T20:28:22.945Z,83.20
2019-01-30T20:30:51.180Z,83.18
2019-01-30T20:33:18.279Z,83.17
2019-01-30T20:35:48.443Z,83.14
2019-01-30T20:38:18.715Z,83.11
2019-01-30T20:40:47.969Z,82.99
2019-01-30T20:43:19.581Z,83.03
2019-01-30T20:45:46.788Z,83.07
2019-01-30T20:48:13.945Z,83.07
2019-01-30T20:50:51.783Z,83.09
2019-01-30T20:53:21.656Z,83.09
2019-01-30T20:55:51.405Z,83.12
2019-01-30T20:58:20.381Z,83.11
2019-01-30T21:00:50.125Z,83.13
2019-01-30T21:03:20.140Z,83.12
2019-01-30T21:05:51.504Z,83.00
2019-01-30T21:08:27.776Z,82.99
2019-01-30T21:10:59.915Z,83.05
2019-01-30T21:13:30.329Z,83.13
2019-01-30T21:15:58.680Z,83.17
2019-01-30T21:18:27.625Z,83.13
2019-01-30T21:20:58.052Z,83.01
2019-01-30T21:23:28.993Z,83.02
2019-01-30T21:25:57.429Z,83.07
2019-01-30T21:28:25.975Z,83.09
2019-01-30T21:30:55.279Z,83.13
2019-01-30T21:33:25.892Z,83.12
2019-01-30T21:35:55.256Z,83.06
2019-01-30T21:38:23.967Z,83.06
2019-01-30T21:40:54.361Z,83.05
2019-01-30T21:43:24.070Z,83.04
2019-01-30T21:45:54.259Z,83.01
2019-01-30T21:48:21.373Z,83.04
2019-01-30T21:50:48.553Z,83.04
2019-01-30T21:53:16.943Z,83.00
2019-01-30T21:55:47.017Z,82.96
2019-01-30T21:58:17.823Z,82.96
2019-01-30T22:00:44.945Z,82.99
2019-01-30T22:03:12.571Z,82.99
2019-01-30T22:05:40.943Z,82.98
2019-01-30T22:08:08.386Z,83.01
2019-01-30T22:10:35.644Z,82.97
2019-01-30T22:13:06.449Z,82.92
2019-01-30T22:15:36.237Z,82.99
2019-01-30T22:18:04.293Z,83.04
2019-01-30T22:20:32.869Z,83.06
2019-01-30T22:23:06.084Z,83.00
2019-01-30T22:25:36.918Z,82.83
2019-01-30T22:28:04.853Z,82.83
2019-01-30T22:30:33.313Z,82.86
2019-01-30T22:33:01.029Z,82.83
2019-01-30T22:35:38.099Z,82.89
2019-01-30T22:38:12.699Z,82.98
2019-01-30T22:40:35.752Z,83.02
2019-01-30T22:43:03.239Z,82.98
2019-01-30T22:45:30.568Z,82.96
2019-01-30T22:47:57.703Z,82.96
2019-01-30T22:50:24.868Z,82.92
2019-01-30T22:52:53.968Z,82.90
2019-01-30T22:55:22.137Z,82.86
2019-01-30T22:57:51.060Z,82.83
2019-01-30T23:01:02.054Z,82.81
2019-01-30T23:03:47.015Z,82.81
2019-01-30T23:06:54.897Z,82.79
2019-01-30T23:09:45.992Z,82.76
2019-01-30T23:12:47.696Z,82.72
2019-01-30T23:16:16.612Z,82.72
2019-01-30T23:19:12.969Z,82.78
2019-01-30T23:22:02.459Z,82.78
2019-01-30T23:24:59.601Z,82.73
2019-01-30T23:27:40.918Z,82.72
2019-01-30T23:30:48.769Z,82.71
2019-01-30T23:33:49.225Z,82.68
2019-01-30T23:36:35.318Z,82.66
2019-01-30T23:39:19.893Z,82.68
2019-01-30T23:42:36.062Z,82.70
2019-01-30T23:45:47.989Z,82.67
2019-01-30T23:49:08.123Z,82.64
2019-01-30T23:52:06.925Z,82.63
2019-01-30T23:55:05.020Z,82.59
2019-01-30T23:57:51.301Z,82.58
